sensor_id;sensor_type;location;lat;lon;timestamp;temperature;humidity
24772;DHT22;12870;52.274;9.754;2024-02-28T00:01:58;5.50;99.90
24772;DHT22;12870;52.274;9.754;2024-02-28T00:04:24;5.40;99.90
24772;DHT22;12870;52.274;9.754;2024-02-28T00:06:50;5.30;99.90
24772;DHT22;12870;52.274;9.754;2024-02-28T00:09:15;5.30;99.90
24772;DHT22;12870;52.274;9.754;2024-02-28T00:11:46;5.20;99.90
24772;DHT22;12870;52.274;9.754;2024-02-28T00:14:13;5.10;99.90
24772;DHT22;12870;52.274;9.754;2024-02-28T00:16:45;5.10;99.90
24772;DHT22;12870;52.274;9.754;2024-02-28T00:19:12;5.00;99.90
24772;DHT22;12870;52.274;9.754;2024-02-28T00:21:39;4.90;99.90
24772;DHT22;12870;52.274;9.754;2024-02-28T00:24:05;4.80;99.90
24772;DHT22;12870;52.274;9.754;2024-02-28T00:26:31;4.80;99.90
24772;DHT22;12870;52.274;9.754;2024-02-28T00:28:57;4.90;99.90
24772;DHT22;12870;52.274;9.754;2024-02-28T00:31:22;4.90;99.90
24772;DHT22;12870;52.274;9.754;2024-02-28T00:33:48;5.00;99.90
24772;DHT22;12870;52.274;9.754;2024-02-28T00:36:14;5.00;99.90
24772;DHT22;12870;52.274;9.754;2024-02-28T00:38:41;5.00;99.90
24772;DHT22;12870;52.274;9.754;2024-02-28T00:41:06;4.90;99.90
24772;DHT22;12870;52.274;9.754;2024-02-28T00:43:32;4.80;99.90
24772;DHT22;12870;52.274;9.754;2024-02-28T00:45:57;4.80;99.90
24772;DHT22;12870;52.274;9.754;2024-02-28T00:48:24;4.70;99.90
24772;DHT22;12870;52.274;9.754;2024-02-28T00:50:49;4.60;99.90
24772;DHT22;12870;52.274;9.754;2024-02-28T00:53:15;4.60;99.90
24772;DHT22;12870;52.274;9.754;2024-02-28T00:55:41;4.50;99.90
24772;DHT22;12870;52.274;9.754;2024-02-28T00:58:07;4.40;99.90
24772;DHT22;12870;52.274;9.754;2024-02-28T01:00:32;4.30;99.90
24772;DHT22;12870;52.274;9.754;2024-02-28T01:02:58;4.20;99.90
24772;DHT22;12870;52.274;9.754;2024-02-28T01:05:24;4.10;99.90
24772;DHT22;12870;52.274;9.754;2024-02-28T01:07:49;4.10;99.90
24772;DHT22;12870;52.274;9.754;2024-02-28T01:10:15;4.00;99.90
24772;DHT22;12870;52.274;9.754;2024-02-28T01:12:40;4.00;99.90
24772;DHT22;12870;52.274;9.754;2024-02-28T01:15:06;3.90;99.90
24772;DHT22;12870;52.274;9.754;2024-02-28T01:17:32;3.90;99.90
24772;DHT22;12870;52.274;9.754;2024-02-28T01:19:58;3.80;99.90
24772;DHT22;12870;52.274;9.754;2024-02-28T01:22:23;3.70;99.90
24772;DHT22;12870;52.274;9.754;2024-02-28T01:24:49;3.70;99.90
24772;DHT22;12870;52.274;9.754;2024-02-28T01:27:14;3.60;99.90
24772;DHT22;12870;52.274;9.754;2024-02-28T01:29:40;3.60;99.90
24772;DHT22;12870;52.274;9.754;2024-02-28T01:32:06;3.50;99.90
24772;DHT22;12870;52.274;9.754;2024-02-28T01:34:31;3.50;99.90
24772;DHT22;12870;52.274;9.754;2024-02-28T01:36:57;3.40;99.90
24772;DHT22;12870;52.274;9.754;2024-02-28T01:39:23;3.40;99.90
24772;DHT22;12870;52.274;9.754;2024-02-28T01:41:53;3.30;99.90
24772;DHT22;12870;52.274;9.754;2024-02-28T01:44:19;3.30;99.90
24772;DHT22;12870;52.274;9.754;2024-02-28T01:46:44;3.20;99.90
24772;DHT22;12870;52.274;9.754;2024-02-28T01:49:10;3.10;99.90
24772;DHT22;12870;52.274;9.754;2024-02-28T01:51:36;3.00;99.90
24772;DHT22;12870;52.274;9.754;2024-02-28T01:54:02;3.00;99.90
24772;DHT22;12870;52.274;9.754;2024-02-28T01:56:27;3.00;99.90
24772;DHT22;12870;52.274;9.754;2024-02-28T01:58:54;2.90;99.90
24772;DHT22;12870;52.274;9.754;2024-02-28T02:01:20;2.90;99.90
24772;DHT22;12870;52.274;9.754;2024-02-28T02:03:46;2.90;99.90
24772;DHT22;12870;52.274;9.754;2024-02-28T02:06:12;2.90;99.90
24772;DHT22;12870;52.274;9.754;2024-02-28T02:08:38;2.80;99.90
24772;DHT22;12870;52.274;9.754;2024-02-28T02:11:05;2.80;99.90
24772;DHT22;12870;52.274;9.754;2024-02-28T02:13:31;2.80;99.90
24772;DHT22;12870;52.274;9.754;2024-02-28T02:15:57;2.80;99.90
24772;DHT22;12870;52.274;9.754;2024-02-28T02:18:23;2.70;99.90
24772;DHT22;12870;52.274;9.754;2024-02-28T02:20:51;2.70;99.90
24772;DHT22;12870;52.274;9.754;2024-02-28T02:23:18;2.70;99.90
24772;DHT22;12870;52.274;9.754;2024-02-28T02:25:47;2.60;99.90
24772;DHT22;12870;52.274;9.754;2024-02-28T02:28:13;2.50;99.90
24772;DHT22;12870;52.274;9.754;2024-02-28T02:30:39;2.50;99.90
24772;DHT22;12870;52.274;9.754;2024-02-28T02:33:05;2.40;99.90
24772;DHT22;12870;52.274;9.754;2024-02-28T02:35:31;2.40;99.90
24772;DHT22;12870;52.274;9.754;2024-02-28T02:37:57;2.40;99.90
24772;DHT22;12870;52.274;9.754;2024-02-28T02:40:23;2.30;99.90
24772;DHT22;12870;52.274;9.754;2024-02-28T02:42:48;2.30;99.90
24772;DHT22;12870;52.274;9.754;2024-02-28T02:45:15;2.30;99.90
24772;DHT22;12870;52.274;9.754;2024-02-28T02:47:40;2.30;99.90
24772;DHT22;12870;52.274;9.754;2024-02-28T02:50:06;2.40;99.90
24772;DHT22;12870;52.274;9.754;2024-02-28T02:52:32;2.40;99.90
24772;DHT22;12870;52.274;9.754;2024-02-28T02:54:57;2.40;99.90
24772;DHT22;12870;52.274;9.754;2024-02-28T02:57:23;2.40;99.90
24772;DHT22;12870;52.274;9.754;2024-02-28T02:59:48;2.30;99.90
24772;DHT22;12870;52.274;9.754;2024-02-28T03:02:14;2.30;99.90
24772;DHT22;12870;52.274;9.754;2024-02-28T03:04:39;2.20;99.90
24772;DHT22;12870;52.274;9.754;2024-02-28T03:07:05;2.20;99.90
24772;DHT22;12870;52.274;9.754;2024-02-28T03:09:30;2.20;99.90
24772;DHT22;12870;52.274;9.754;2024-02-28T03:11:56;2.20;99.90
24772;DHT22;12870;52.274;9.754;2024-02-28T03:14:21;2.10;99.90
24772;DHT22;12870;52.274;9.754;2024-02-28T03:16:47;2.20;99.90
24772;DHT22;12870;52.274;9.754;2024-02-28T03:19:14;2.10;99.90
24772;DHT22;12870;52.274;9.754;2024-02-28T03:21:40;2.10;99.90
24772;DHT22;12870;52.274;9.754;2024-02-28T03:24:06;2.00;99.90
24772;DHT22;12870;52.274;9.754;2024-02-28T03:26:32;2.00;99.90
24772;DHT22;12870;52.274;9.754;2024-02-28T03:28:58;1.90;99.90
24772;DHT22;12870;52.274;9.754;2024-02-28T03:31:24;1.90;99.90
24772;DHT22;12870;52.274;9.754;2024-02-28T03:33:50;1.80;99.90
24772;DHT22;12870;52.274;9.754;2024-02-28T03:36:16;1.80;99.90
24772;DHT22;12870;52.274;9.754;2024-02-28T03:38:41;1.70;99.90
24772;DHT22;12870;52.274;9.754;2024-02-28T03:41:07;1.70;99.90
24772;DHT22;12870;52.274;9.754;2024-02-28T03:43:32;1.70;99.90
24772;DHT22;12870;52.274;9.754;2024-02-28T03:45:58;1.70;99.90
24772;DHT22;12870;52.274;9.754;2024-02-28T03:48:23;1.70;99.90
24772;DHT22;12870;52.274;9.754;2024-02-28T03:50:49;1.70;99.90
24772;DHT22;12870;52.274;9.754;2024-02-28T03:53:16;1.70;99.90
24772;DHT22;12870;52.274;9.754;2024-02-28T03:55:41;1.70;99.90
24772;DHT22;12870;52.274;9.754;2024-02-28T03:58:09;1.70;99.90
24772;DHT22;12870;52.274;9.754;2024-02-28T04:00:35;1.60;99.90
24772;DHT22;12870;52.274;9.754;2024-02-28T04:03:01;1.60;99.90
24772;DHT22;12870;52.274;9.754;2024-02-28T04:05:27;1.70;99.90
24772;DHT22;12870;52.274;9.754;2024-02-28T04:07:52;1.60;99.90
24772;DHT22;12870;52.274;9.754;2024-02-28T04:10:18;1.60;99.90
24772;DHT22;12870;52.274;9.754;2024-02-28T04:12:44;1.70;99.90
24772;DHT22;12870;52.274;9.754;2024-02-28T04:15:13;1.70;99.90
24772;DHT22;12870;52.274;9.754;2024-02-28T04:17:39;1.70;99.90
24772;DHT22;12870;52.274;9.754;2024-02-28T04:20:09;1.70;99.90
24772;DHT22;12870;52.274;9.754;2024-02-28T04:22:34;1.70;99.90
24772;DHT22;12870;52.274;9.754;2024-02-28T04:25:00;1.70;99.90
24772;DHT22;12870;52.274;9.754;2024-02-28T04:27:25;1.60;99.90
24772;DHT22;12870;52.274;9.754;2024-02-28T04:29:51;1.60;99.90
24772;DHT22;12870;52.274;9.754;2024-02-28T04:32:16;1.60;99.90
24772;DHT22;12870;52.274;9.754;2024-02-28T04:34:42;1.60;99.90
24772;DHT22;12870;52.274;9.754;2024-02-28T04:37:07;1.60;99.90
24772;DHT22;12870;52.274;9.754;2024-02-28T04:39:33;1.70;99.90
24772;DHT22;12870;52.274;9.754;2024-02-28T04:41:58;1.80;99.90
24772;DHT22;12870;52.274;9.754;2024-02-28T04:44:24;1.90;99.90
24772;DHT22;12870;52.274;9.754;2024-02-28T04:46:49;1.80;99.90
24772;DHT22;12870;52.274;9.754;2024-02-28T04:49:15;1.80;99.90
24772;DHT22;12870;52.274;9.754;2024-02-28T04:51:40;1.80;99.90
24772;DHT22;12870;52.274;9.754;2024-02-28T04:54:06;1.80;99.90
24772;DHT22;12870;52.274;9.754;2024-02-28T04:56:31;1.70;99.90
24772;DHT22;12870;52.274;9.754;2024-02-28T04:58:57;1.60;99.90
24772;DHT22;12870;52.274;9.754;2024-02-28T05:01:23;1.60;99.90
24772;DHT22;12870;52.274;9.754;2024-02-28T05:03:48;1.60;99.90
24772;DHT22;12870;52.274;9.754;2024-02-28T05:06:14;1.60;99.90
24772;DHT22;12870;52.274;9.754;2024-02-28T05:08:39;1.60;99.90
24772;DHT22;12870;52.274;9.754;2024-02-28T05:11:05;1.50;99.90
24772;DHT22;12870;52.274;9.754;2024-02-28T05:13:30;1.50;99.90
24772;DHT22;12870;52.274;9.754;2024-02-28T05:15:56;1.40;99.90
24772;DHT22;12870;52.274;9.754;2024-02-28T05:18:22;1.40;99.90
24772;DHT22;12870;52.274;9.754;2024-02-28T05:20:47;1.40;99.90
24772;DHT22;12870;52.274;9.754;2024-02-28T05:23:13;1.40;99.90
24772;DHT22;12870;52.274;9.754;2024-02-28T05:25:39;1.40;99.90
24772;DHT22;12870;52.274;9.754;2024-02-28T05:28:04;1.40;99.90
24772;DHT22;12870;52.274;9.754;2024-02-28T05:30:30;1.40;99.90
24772;DHT22;12870;52.274;9.754;2024-02-28T05:32:56;1.40;99.90
24772;DHT22;12870;52.274;9.754;2024-02-28T05:35:21;1.40;99.90
24772;DHT22;12870;52.274;9.754;2024-02-28T05:37:47;1.30;99.90
24772;DHT22;12870;52.274;9.754;2024-02-28T05:40:12;1.30;99.90
24772;DHT22;12870;52.274;9.754;2024-02-28T05:42:38;1.30;99.90
24772;DHT22;12870;52.274;9.754;2024-02-28T05:45:05;1.30;99.90
24772;DHT22;12870;52.274;9.754;2024-02-28T05:47:31;1.40;99.90
24772;DHT22;12870;52.274;9.754;2024-02-28T05:49:57;1.40;99.90
24772;DHT22;12870;52.274;9.754;2024-02-28T05:52:24;1.30;99.90
24772;DHT22;12870;52.274;9.754;2024-02-28T05:54:51;1.40;99.90
24772;DHT22;12870;52.274;9.754;2024-02-28T05:57:16;1.50;99.90
24772;DHT22;12870;52.274;9.754;2024-02-28T05:59:42;1.60;99.90
24772;DHT22;12870;52.274;9.754;2024-02-28T06:02:08;1.60;99.90
24772;DHT22;12870;52.274;9.754;2024-02-28T06:04:33;1.70;99.90
24772;DHT22;12870;52.274;9.754;2024-02-28T06:06:59;1.70;99.90
24772;DHT22;12870;52.274;9.754;2024-02-28T06:09:26;1.80;99.90
24772;DHT22;12870;52.274;9.754;2024-02-28T06:11:53;1.80;99.90
24772;DHT22;12870;52.274;9.754;2024-02-28T06:14:18;1.80;99.90
24772;DHT22;12870;52.274;9.754;2024-02-28T06:16:47;1.90;99.90
24772;DHT22;12870;52.274;9.754;2024-02-28T06:19:12;1.90;99.90
24772;DHT22;12870;52.274;9.754;2024-02-28T06:21:38;1.90;99.90
24772;DHT22;12870;52.274;9.754;2024-02-28T06:24:03;1.90;99.90
24772;DHT22;12870;52.274;9.754;2024-02-28T06:26:30;2.00;99.90
24772;DHT22;12870;52.274;9.754;2024-02-28T06:28:57;2.00;99.90
24772;DHT22;12870;52.274;9.754;2024-02-28T06:31:26;2.00;99.90
24772;DHT22;12870;52.274;9.754;2024-02-28T06:33:55;2.00;99.90
24772;DHT22;12870;52.274;9.754;2024-02-28T06:36:20;2.10;99.90
24772;DHT22;12870;52.274;9.754;2024-02-28T06:38:46;2.10;99.90
24772;DHT22;12870;52.274;9.754;2024-02-28T06:41:11;2.10;99.90
24772;DHT22;12870;52.274;9.754;2024-02-28T06:43:37;2.10;99.90
24772;DHT22;12870;52.274;9.754;2024-02-28T06:46:03;2.10;99.90
24772;DHT22;12870;52.274;9.754;2024-02-28T06:48:29;2.10;99.90
24772;DHT22;12870;52.274;9.754;2024-02-28T06:50:55;2.10;99.90
24772;DHT22;12870;52.274;9.754;2024-02-28T06:53:21;2.00;99.90
24772;DHT22;12870;52.274;9.754;2024-02-28T06:55:47;2.10;99.90
24772;DHT22;12870;52.274;9.754;2024-02-28T06:58:14;2.00;99.90
24772;DHT22;12870;52.274;9.754;2024-02-28T07:00:40;2.00;99.90
24772;DHT22;12870;52.274;9.754;2024-02-28T07:03:06;2.10;99.90
24772;DHT22;12870;52.274;9.754;2024-02-28T07:05:32;2.10;99.90
24772;DHT22;12870;52.274;9.754;2024-02-28T07:07:59;2.10;99.90
24772;DHT22;12870;52.274;9.754;2024-02-28T07:10:24;2.00;99.90
24772;DHT22;12870;52.274;9.754;2024-02-28T07:12:50;2.10;99.90
24772;DHT22;12870;52.274;9.754;2024-02-28T07:15:15;2.00;99.90
24772;DHT22;12870;52.274;9.754;2024-02-28T07:17:44;2.10;99.90
24772;DHT22;12870;52.274;9.754;2024-02-28T07:20:10;2.00;99.90
24772;DHT22;12870;52.274;9.754;2024-02-28T07:22:37;2.00;99.90
24772;DHT22;12870;52.274;9.754;2024-02-28T07:25:02;2.00;99.90
24772;DHT22;12870;52.274;9.754;2024-02-28T07:27:29;2.00;99.90
24772;DHT22;12870;52.274;9.754;2024-02-28T07:29:55;2.00;99.90
24772;DHT22;12870;52.274;9.754;2024-02-28T07:32:20;2.00;99.90
24772;DHT22;12870;52.274;9.754;2024-02-28T07:34:46;2.00;99.90
24772;DHT22;12870;52.274;9.754;2024-02-28T07:37:11;2.00;99.90
24772;DHT22;12870;52.274;9.754;2024-02-28T07:39:37;2.00;99.90
24772;DHT22;12870;52.274;9.754;2024-02-28T07:42:03;2.00;99.90
24772;DHT22;12870;52.274;9.754;2024-02-28T07:44:29;2.10;99.90
24772;DHT22;12870;52.274;9.754;2024-02-28T07:46:58;2.10;99.90
24772;DHT22;12870;52.274;9.754;2024-02-28T07:49:24;2.10;99.90
24772;DHT22;12870;52.274;9.754;2024-02-28T07:51:50;2.10;99.90
24772;DHT22;12870;52.274;9.754;2024-02-28T07:54:16;2.20;99.90
24772;DHT22;12870;52.274;9.754;2024-02-28T07:56:41;2.20;99.90
24772;DHT22;12870;52.274;9.754;2024-02-28T07:59:07;2.20;99.90
24772;DHT22;12870;52.274;9.754;2024-02-28T08:01:33;2.30;99.90
24772;DHT22;12870;52.274;9.754;2024-02-28T08:03:59;2.40;99.90
24772;DHT22;12870;52.274;9.754;2024-02-28T08:06:25;2.50;99.90
24772;DHT22;12870;52.274;9.754;2024-02-28T08:08:50;2.50;99.90
24772;DHT22;12870;52.274;9.754;2024-02-28T08:11:16;2.50;99.90
24772;DHT22;12870;52.274;9.754;2024-02-28T08:13:42;2.60;99.90
24772;DHT22;12870;52.274;9.754;2024-02-28T08:16:09;2.70;99.90
24772;DHT22;12870;52.274;9.754;2024-02-28T08:18:35;2.80;99.90
24772;DHT22;12870;52.274;9.754;2024-02-28T08:21:01;2.80;99.90
24772;DHT22;12870;52.274;9.754;2024-02-28T08:23:30;2.90;99.90
24772;DHT22;12870;52.274;9.754;2024-02-28T08:25:56;2.90;99.90
24772;DHT22;12870;52.274;9.754;2024-02-28T08:28:21;3.00;99.90
24772;DHT22;12870;52.274;9.754;2024-02-28T08:30:48;3.00;99.90
24772;DHT22;12870;52.274;9.754;2024-02-28T08:33:13;3.10;99.90
24772;DHT22;12870;52.274;9.754;2024-02-28T08:35:39;3.10;99.90
24772;DHT22;12870;52.274;9.754;2024-02-28T08:38:04;3.20;99.90
24772;DHT22;12870;52.274;9.754;2024-02-28T08:40:30;3.30;99.90
24772;DHT22;12870;52.274;9.754;2024-02-28T08:42:55;3.40;99.90
24772;DHT22;12870;52.274;9.754;2024-02-28T08:45:25;3.30;99.90
24772;DHT22;12870;52.274;9.754;2024-02-28T08:47:50;3.30;99.90
24772;DHT22;12870;52.274;9.754;2024-02-28T08:50:16;3.30;99.90
24772;DHT22;12870;52.274;9.754;2024-02-28T08:52:42;3.30;99.90
24772;DHT22;12870;52.274;9.754;2024-02-28T08:55:07;3.30;99.90
24772;DHT22;12870;52.274;9.754;2024-02-28T08:57:33;3.40;99.90
24772;DHT22;12870;52.274;9.754;2024-02-28T08:59:59;3.40;99.90
24772;DHT22;12870;52.274;9.754;2024-02-28T09:02:25;3.40;99.90
24772;DHT22;12870;52.274;9.754;2024-02-28T09:04:50;3.60;99.90
24772;DHT22;12870;52.274;9.754;2024-02-28T09:07:18;3.60;99.90
24772;DHT22;12870;52.274;9.754;2024-02-28T09:09:47;3.70;99.90
24772;DHT22;12870;52.274;9.754;2024-02-28T09:12:13;3.60;99.90
24772;DHT22;12870;52.274;9.754;2024-02-28T09:14:38;3.60;99.90
24772;DHT22;12870;52.274;9.754;2024-02-28T09:17:04;3.80;99.90
24772;DHT22;12870;52.274;9.754;2024-02-28T09:19:33;3.90;99.90
24772;DHT22;12870;52.274;9.754;2024-02-28T09:21:59;4.10;99.90
24772;DHT22;12870;52.274;9.754;2024-02-28T09:24:26;4.20;99.90
24772;DHT22;12870;52.274;9.754;2024-02-28T09:26:51;4.10;99.90
24772;DHT22;12870;52.274;9.754;2024-02-28T09:29:17;4.00;99.90
24772;DHT22;12870;52.274;9.754;2024-02-28T09:31:42;3.90;99.90
24772;DHT22;12870;52.274;9.754;2024-02-28T09:34:08;4.00;99.90
24772;DHT22;12870;52.274;9.754;2024-02-28T09:36:41;4.00;99.90
24772;DHT22;12870;52.274;9.754;2024-02-28T09:39:14;4.20;99.90
24772;DHT22;12870;52.274;9.754;2024-02-28T09:41:42;4.10;99.90
24772;DHT22;12870;52.274;9.754;2024-02-28T09:44:08;4.00;99.90
24772;DHT22;12870;52.274;9.754;2024-02-28T09:46:34;4.20;99.90
24772;DHT22;12870;52.274;9.754;2024-02-28T09:49:04;4.30;99.90
24772;DHT22;12870;52.274;9.754;2024-02-28T09:51:34;4.30;99.90
24772;DHT22;12870;52.274;9.754;2024-02-28T09:54:03;4.30;99.90
24772;DHT22;12870;52.274;9.754;2024-02-28T09:56:31;4.50;99.90
24772;DHT22;12870;52.274;9.754;2024-02-28T09:58:57;4.60;99.90
24772;DHT22;12870;52.274;9.754;2024-02-28T10:01:25;4.70;99.90
24772;DHT22;12870;52.274;9.754;2024-02-28T10:03:52;4.80;99.90
24772;DHT22;12870;52.274;9.754;2024-02-28T10:06:20;5.10;99.90
24772;DHT22;12870;52.274;9.754;2024-02-28T10:08:46;5.10;99.90
24772;DHT22;12870;52.274;9.754;2024-02-28T10:11:22;5.20;99.90
24772;DHT22;12870;52.274;9.754;2024-02-28T10:13:48;5.10;99.90
24772;DHT22;12870;52.274;9.754;2024-02-28T10:16:14;5.10;99.90
24772;DHT22;12870;52.274;9.754;2024-02-28T10:18:45;5.20;99.90
24772;DHT22;12870;52.274;9.754;2024-02-28T10:21:11;5.40;99.90
24772;DHT22;12870;52.274;9.754;2024-02-28T10:23:46;5.50;99.90
24772;DHT22;12870;52.274;9.754;2024-02-28T10:26:12;5.70;99.90
24772;DHT22;12870;52.274;9.754;2024-02-28T10:28:38;5.60;99.90
24772;DHT22;12870;52.274;9.754;2024-02-28T10:31:05;5.70;99.90
24772;DHT22;12870;52.274;9.754;2024-02-28T10:33:32;5.70;99.90
24772;DHT22;12870;52.274;9.754;2024-02-28T10:35:59;5.80;99.90
24772;DHT22;12870;52.274;9.754;2024-02-28T10:38:26;6.20;99.90
24772;DHT22;12870;52.274;9.754;2024-02-28T10:40:53;6.40;99.90
24772;DHT22;12870;52.274;9.754;2024-02-28T10:43:19;6.40;99.90
24772;DHT22;12870;52.274;9.754;2024-02-28T10:45:46;6.60;99.90
24772;DHT22;12870;52.274;9.754;2024-02-28T10:48:14;6.70;99.90
24772;DHT22;12870;52.274;9.754;2024-02-28T10:50:40;6.90;99.90
24772;DHT22;12870;52.274;9.754;2024-02-28T10:53:13;7.00;99.90
24772;DHT22;12870;52.274;9.754;2024-02-28T10:55:40;7.30;99.90
24772;DHT22;12870;52.274;9.754;2024-02-28T10:58:06;7.80;99.90
24772;DHT22;12870;52.274;9.754;2024-02-28T11:00:34;8.40;99.90
24772;DHT22;12870;52.274;9.754;2024-02-28T11:03:00;8.90;99.90
24772;DHT22;12870;52.274;9.754;2024-02-28T11:05:37;9.50;99.90
24772;DHT22;12870;52.274;9.754;2024-02-28T11:08:07;9.50;99.90
24772;DHT22;12870;52.274;9.754;2024-02-28T11:10:33;9.70;99.90
24772;DHT22;12870;52.274;9.754;2024-02-28T11:12:59;9.70;99.90
24772;DHT22;12870;52.274;9.754;2024-02-28T11:15:25;9.60;99.90
24772;DHT22;12870;52.274;9.754;2024-02-28T11:17:54;9.70;99.90
24772;DHT22;12870;52.274;9.754;2024-02-28T11:20:20;9.90;99.90
24772;DHT22;12870;52.274;9.754;2024-02-28T11:22:48;9.40;99.90
24772;DHT22;12870;52.274;9.754;2024-02-28T11:25:13;8.70;99.90
24772;DHT22;12870;52.274;9.754;2024-02-28T11:27:48;8.50;99.90
24772;DHT22;12870;52.274;9.754;2024-02-28T11:30:14;8.50;99.90
24772;DHT22;12870;52.274;9.754;2024-02-28T11:32:41;8.30;99.90
24772;DHT22;12870;52.274;9.754;2024-02-28T11:35:06;7.90;99.90
24772;DHT22;12870;52.274;9.754;2024-02-28T11:37:32;7.60;99.90
24772;DHT22;12870;52.274;9.754;2024-02-28T11:39:59;7.20;99.90
24772;DHT22;12870;52.274;9.754;2024-02-28T11:42:24;7.20;99.90
24772;DHT22;12870;52.274;9.754;2024-02-28T11:44:54;7.20;99.90
24772;DHT22;12870;52.274;9.754;2024-02-28T11:47:23;7.30;99.90
24772;DHT22;12870;52.274;9.754;2024-02-28T11:49:49;8.00;99.90
24772;DHT22;12870;52.274;9.754;2024-02-28T11:52:15;8.70;99.90
24772;DHT22;12870;52.274;9.754;2024-02-28T11:54:40;9.20;99.90
24772;DHT22;12870;52.274;9.754;2024-02-28T11:57:07;9.10;99.90
24772;DHT22;12870;52.274;9.754;2024-02-28T11:59:34;9.70;99.90
24772;DHT22;12870;52.274;9.754;2024-02-28T12:02:00;10.20;99.90
24772;DHT22;12870;52.274;9.754;2024-02-28T12:04:25;10.60;99.90
24772;DHT22;12870;52.274;9.754;2024-02-28T12:06:51;10.80;99.90
24772;DHT22;12870;52.274;9.754;2024-02-28T12:09:17;11.50;99.90
24772;DHT22;12870;52.274;9.754;2024-02-28T12:11:43;11.90;99.90
24772;DHT22;12870;52.274;9.754;2024-02-28T12:14:10;12.30;99.90
24772;DHT22;12870;52.274;9.754;2024-02-28T12:16:38;12.40;99.90
24772;DHT22;12870;52.274;9.754;2024-02-28T12:19:12;11.90;99.90
24772;DHT22;12870;52.274;9.754;2024-02-28T12:21:38;11.50;99.90
24772;DHT22;12870;52.274;9.754;2024-02-28T12:24:07;11.80;99.90
24772;DHT22;12870;52.274;9.754;2024-02-28T12:26:34;11.80;99.90
24772;DHT22;12870;52.274;9.754;2024-02-28T12:29:00;12.50;99.90
24772;DHT22;12870;52.274;9.754;2024-02-28T12:31:27;13.00;99.90
24772;DHT22;12870;52.274;9.754;2024-02-28T12:33:52;13.40;99.90
24772;DHT22;12870;52.274;9.754;2024-02-28T12:36:19;12.70;99.90
24772;DHT22;12870;52.274;9.754;2024-02-28T12:38:45;13.20;99.90
24772;DHT22;12870;52.274;9.754;2024-02-28T12:41:10;13.60;99.90
24772;DHT22;12870;52.274;9.754;2024-02-28T12:43:36;14.40;99.90
24772;DHT22;12870;52.274;9.754;2024-02-28T12:46:02;14.00;99.90
24772;DHT22;12870;52.274;9.754;2024-02-28T12:48:28;13.70;99.90
24772;DHT22;12870;52.274;9.754;2024-02-28T12:50:54;14.50;99.90
24772;DHT22;12870;52.274;9.754;2024-02-28T12:53:20;14.10;99.90
24772;DHT22;12870;52.274;9.754;2024-02-28T12:55:45;14.00;99.90
24772;DHT22;12870;52.274;9.754;2024-02-28T12:58:11;13.60;99.90
24772;DHT22;12870;52.274;9.754;2024-02-28T13:00:37;13.80;99.90
24772;DHT22;12870;52.274;9.754;2024-02-28T13:03:03;14.50;99.90
24772;DHT22;12870;52.274;9.754;2024-02-28T13:05:29;14.40;99.90
24772;DHT22;12870;52.274;9.754;2024-02-28T13:07:55;14.30;99.90
24772;DHT22;12870;52.274;9.754;2024-02-28T13:10:20;15.10;99.90
24772;DHT22;12870;52.274;9.754;2024-02-28T13:12:47;15.20;99.90
24772;DHT22;12870;52.274;9.754;2024-02-28T13:15:13;15.40;99.90
24772;DHT22;12870;52.274;9.754;2024-02-28T13:17:38;15.60;99.90
24772;DHT22;12870;52.274;9.754;2024-02-28T13:20:04;16.50;99.90
24772;DHT22;12870;52.274;9.754;2024-02-28T13:22:30;17.50;99.90
24772;DHT22;12870;52.274;9.754;2024-02-28T13:24:55;16.80;98.50
24772;DHT22;12870;52.274;9.754;2024-02-28T13:27:21;16.70;97.40
24772;DHT22;12870;52.274;9.754;2024-02-28T13:29:46;15.90;97.00
24772;DHT22;12870;52.274;9.754;2024-02-28T13:32:12;16.20;98.60
24772;DHT22;12870;52.274;9.754;2024-02-28T13:34:39;16.10;97.30
24772;DHT22;12870;52.274;9.754;2024-02-28T13:37:05;15.80;97.90
24772;DHT22;12870;52.274;9.754;2024-02-28T13:39:30;15.70;98.80
24772;DHT22;12870;52.274;9.754;2024-02-28T13:41:57;16.30;97.90
24772;DHT22;12870;52.274;9.754;2024-02-28T13:44:22;16.50;97.90
24772;DHT22;12870;52.274;9.754;2024-02-28T13:46:50;15.70;97.10
24772;DHT22;12870;52.274;9.754;2024-02-28T13:49:17;15.20;98.00
24772;DHT22;12870;52.274;9.754;2024-02-28T13:51:44;14.70;99.00
24772;DHT22;12870;52.274;9.754;2024-02-28T13:54:10;15.10;98.50
24772;DHT22;12870;52.274;9.754;2024-02-28T13:56:35;14.80;98.80
24772;DHT22;12870;52.274;9.754;2024-02-28T13:59:01;14.70;99.50
24772;DHT22;12870;52.274;9.754;2024-02-28T14:01:27;14.60;99.00
24772;DHT22;12870;52.274;9.754;2024-02-28T14:03:53;14.80;97.70
24772;DHT22;12870;52.274;9.754;2024-02-28T14:06:19;15.20;99.10
24772;DHT22;12870;52.274;9.754;2024-02-28T14:08:45;15.10;98.30
24772;DHT22;12870;52.274;9.754;2024-02-28T14:11:11;15.20;98.20
24772;DHT22;12870;52.274;9.754;2024-02-28T14:13:36;15.20;97.60
24772;DHT22;12870;52.274;9.754;2024-02-28T14:16:05;14.70;97.70
24772;DHT22;12870;52.274;9.754;2024-02-28T14:18:31;14.50;98.30
24772;DHT22;12870;52.274;9.754;2024-02-28T14:20:56;14.10;98.70
24772;DHT22;12870;52.274;9.754;2024-02-28T14:23:22;14.00;98.00
24772;DHT22;12870;52.274;9.754;2024-02-28T14:25:47;13.90;99.40
24772;DHT22;12870;52.274;9.754;2024-02-28T14:28:13;13.80;99.60
24772;DHT22;12870;52.274;9.754;2024-02-28T14:30:39;14.00;99.30
24772;DHT22;12870;52.274;9.754;2024-02-28T14:33:04;13.70;98.30
24772;DHT22;12870;52.274;9.754;2024-02-28T14:35:30;13.40;99.50
24772;DHT22;12870;52.274;9.754;2024-02-28T14:37:56;13.50;99.90
24772;DHT22;12870;52.274;9.754;2024-02-28T14:40:21;13.60;99.30
24772;DHT22;12870;52.274;9.754;2024-02-28T14:42:47;13.70;99.90
24772;DHT22;12870;52.274;9.754;2024-02-28T14:45:13;13.80;99.40
24772;DHT22;12870;52.274;9.754;2024-02-28T14:47:43;13.70;99.90
24772;DHT22;12870;52.274;9.754;2024-02-28T14:50:09;13.60;99.70
24772;DHT22;12870;52.274;9.754;2024-02-28T14:52:39;13.40;99.90
24772;DHT22;12870;52.274;9.754;2024-02-28T14:55:06;13.50;99.90
24772;DHT22;12870;52.274;9.754;2024-02-28T14:57:32;13.20;99.90
24772;DHT22;12870;52.274;9.754;2024-02-28T14:59:58;13.20;99.90
24772;DHT22;12870;52.274;9.754;2024-02-28T15:02:24;13.10;99.90
24772;DHT22;12870;52.274;9.754;2024-02-28T15:04:50;13.00;99.90
24772;DHT22;12870;52.274;9.754;2024-02-28T15:07:16;12.90;99.90
24772;DHT22;12870;52.274;9.754;2024-02-28T15:09:41;12.80;99.90
24772;DHT22;12870;52.274;9.754;2024-02-28T15:12:07;12.70;99.90
24772;DHT22;12870;52.274;9.754;2024-02-28T15:14:33;12.60;99.90
24772;DHT22;12870;52.274;9.754;2024-02-28T15:16:59;12.40;99.90
24772;DHT22;12870;52.274;9.754;2024-02-28T15:19:25;12.30;99.90
24772;DHT22;12870;52.274;9.754;2024-02-28T15:21:53;12.20;99.90
24772;DHT22;12870;52.274;9.754;2024-02-28T15:24:18;12.00;99.90
24772;DHT22;12870;52.274;9.754;2024-02-28T15:26:44;11.90;99.90
24772;DHT22;12870;52.274;9.754;2024-02-28T15:29:09;11.70;99.90
24772;DHT22;12870;52.274;9.754;2024-02-28T15:31:36;11.60;99.90
24772;DHT22;12870;52.274;9.754;2024-02-28T15:34:03;11.60;99.90
24772;DHT22;12870;52.274;9.754;2024-02-28T15:36:29;11.50;99.90